الصفحة الرئيسية
METAR-TAF:

METAR-TAF

مطار :

جزيرة ويك, الولايات المتحدة

دائرة عرض: 19-17N, خط طول: 166-39E, ارتفاع: 4 متر

مراقبة الطقس الحالي

تاريخ ووقت الإصدار 49 دقيقة قبل الساعة 22:55UTC
ريح 13 عقدة من الشرق/الشمال الشرقي
درجة الحرارة 31°درجة مئوية
الرطوبة 66%
ضغط 1016 hPa
الرؤية: 14.5 كم
غيوم متفرقة على ارتفاع 1800 قدم

METAR: PWAK 242255Z AUTO 06013KT 9SM SCT018 31/24 A3000 RMK AO2 SLP165 T03050239

زمن: 11:44 (23:44 UTC)

توقعات

تاريخ ووقت الإصدار 1ساعة و 44 دقيقة قبل الساعة 22:00UTC
التوقعات صالحة من24 الساعة 22 UTC إلى 26 الساعة 04 UTC
ريح 14 عقدة من الشرق/الشمال الشرقي
الرؤية 10 كم أو أكثر
غيوم متفرقة على ارتفاع 1700 قدم
غيوم مفككة على ارتفاع 4000 قدم

TAF: PWAK 242200Z 2422/2604 07014KT 9999 SCT017 BKN040 QNH2992INS TX33/2500Z TN26/2516Z

أرصاد الطقس والتوقعات من أكثر من 4000 مطار (تقارير الطقس للمطار METAR والتنبؤ بالطقس بالمطارTAF).

المحطات المتاحة هي النقط الصفراء والحمراء على الخريطة.

حرك المؤشر فوق النقطة لمعرفة اسم المحطة.

ثم انقر لمعرفة أرصاد وتوقعات الطقس.

لتغيير الخارطة: اضغط على الأزرار الخضراء مع رمز الصليب الأسود للتكبير. على الزر الأخضر مع شرطة للتصغير، أو على الأسهم الخضراء للخرائط المجاورة.


METAR-TAF: